createdAt,value
2023-04-01T00:04:44.705Z,97177.06
2023-04-01T00:09:48.858Z,97173.28
2023-04-01T00:14:51.574Z,97173.81
2023-04-01T00:19:55.516Z,97167.91
2023-04-01T00:24:59.613Z,97156.06
2023-04-01T00:30:27.730Z,97167.63
2023-04-01T00:35:30.774Z,97159.81
2023-04-01T00:40:37.390Z,97159.78
2023-04-01T00:45:42.143Z,97159.78
2023-04-01T00:50:47.190Z,97159.50
2023-04-01T00:55:56.338Z,97160.28
2023-04-01T01:01:00.992Z,97153.28
2023-04-01T01:06:13.277Z,97152.19
2023-04-01T01:11:23.564Z,97151.66
2023-04-01T01:16:29.091Z,97156.22
2023-04-01T01:21:53.877Z,97142.78
2023-04-01T01:27:03.814Z,97140.88
2023-04-01T01:32:17.571Z,97139.78
2023-04-01T01:37:23.450Z,97132.81
2023-04-01T01:42:28.169Z,97130.91
2023-04-01T01:47:31.644Z,97139.75
2023-04-01T01:52:36.024Z,97138.69
2023-04-01T01:57:40.168Z,97144.28
2023-04-01T02:02:53.314Z,97152.31
2023-04-01T02:08:03.643Z,97152.06
2023-04-01T02:13:12.070Z,97148.00
2023-04-01T02:18:15.686Z,97157.41
2023-04-01T02:23:20.025Z,97149.56
2023-04-01T02:28:23.027Z,97152.78
2023-04-01T02:33:25.973Z,97147.13
2023-04-01T02:38:30.189Z,97149.25
2023-04-01T02:43:33.003Z,97137.41
2023-04-01T02:48:35.788Z,97152.16
2023-04-01T02:53:39.860Z,97144.88
2023-04-01T02:58:42.663Z,97148.34
2023-04-01T03:03:45.425Z,97139.97
2023-04-01T03:08:49.648Z,97141.06
2023-04-01T03:13:52.424Z,97142.66
2023-04-01T03:18:57.810Z,97151.75
2023-04-01T03:24:11.816Z,97152.53
2023-04-01T03:29:16.546Z,97145.81
2023-04-01T03:34:20.368Z,97152.50
2023-04-01T03:39:24.612Z,97155.47
2023-04-01T03:44:27.304Z,97166.16
2023-04-01T03:49:33.049Z,97168.03
2023-04-01T03:54:37.480Z,97166.91
2023-04-01T03:59:40.427Z,97168.25
2023-04-01T04:04:43.651Z,97158.03
2023-04-01T04:09:48.761Z,97173.84
2023-04-01T04:14:51.591Z,97176.75
2023-04-01T04:19:54.348Z,97184.81
2023-04-01T04:24:59.394Z,97183.44
2023-04-01T04:30:02.264Z,97178.59
2023-04-01T04:35:07.436Z,97182.59
2023-04-01T04:40:12.818Z,97170.22
2023-04-01T04:45:16.162Z,97171.31
2023-04-01T04:50:27.950Z,97184.69
2023-04-01T04:55:32.552Z,97183.88
2023-04-01T05:00:54.001Z,97186.00
2023-04-01T05:06:02.451Z,97196.16
2023-04-01T05:11:13.598Z,97200.16
2023-04-01T05:16:19.500Z,97194.50
2023-04-01T05:21:22.324Z,97196.38
2023-04-01T05:26:26.452Z,97205.75
2023-04-01T05:31:29.448Z,97207.84
2023-04-01T05:36:34.059Z,97207.84
2023-04-01T05:41:38.523Z,97217.22
2023-04-01T05:46:41.369Z,97221.22
2023-04-01T05:51:52.137Z,97219.59
2023-04-01T05:56:56.519Z,97225.97
2023-04-01T06:02:00.003Z,97221.81
2023-04-01T06:07:03.218Z,97230.19
2023-04-01T06:12:38.217Z,97228.53
2023-04-01T06:17:50.249Z,97236.22
2023-04-01T06:23:19.880Z,97231.44
2023-04-01T06:28:45.961Z,97238.44
2023-04-01T06:33:58.323Z,97247.56
2023-04-01T06:39:15.310Z,97252.44
2023-04-01T06:44:26.593Z,97253.25
2023-04-01T06:49:53.976Z,97252.97
2023-04-01T06:55:25.436Z,97255.94
2023-04-01T07:00:57.162Z,97259.44
2023-04-01T07:06:02.136Z,97263.50
2023-04-01T07:11:06.082Z,97261.84
2023-04-01T07:16:32.368Z,97262.41
2023-04-01T07:21:38.014Z,97267.53
2023-04-01T07:26:51.276Z,97266.44
2023-04-01T07:32:18.377Z,97286.34
2023-04-01T07:37:26.732Z,97280.94
2023-04-01T07:42:37.747Z,97283.09
2023-04-01T07:47:57.623Z,97294.13
2023-04-01T07:53:10.355Z,97297.34
2023-04-01T07:58:18.415Z,97305.94
2023-04-01T08:03:40.938Z,97303.50
2023-04-01T08:08:52.944Z,97306.72
2023-04-01T08:14:16.224Z,97325.00
2023-04-01T08:19:42.363Z,97329.56
2023-04-01T08:24:48.296Z,97336.25
2023-04-01T08:30:00.912Z,97340.81
2023-04-01T08:35:10.652Z,97343.72
2023-04-01T08:40:32.392Z,97351.25
2023-04-01T08:45:50.011Z,97353.91
2023-04-01T08:57:26.346Z,97363.78
2023-04-01T09:03:21.658Z,97362.94
2023-04-01T09:08:42.339Z,97382.28
2023-04-01T09:14:19.779Z,97387.88
2023-04-01T09:19:46.942Z,97395.63
2023-04-01T09:25:23.433Z,97397.75
2023-04-01T09:30:45.766Z,97401.19
2023-04-01T09:35:49.759Z,97409.59
2023-04-01T09:40:58.679Z,97418.19
2023-04-01T09:46:26.101Z,97420.91
2023-04-01T09:51:36.196Z,97422.56
2023-04-01T09:57:18.770Z,97433.56
2023-04-01T10:03:15.539Z,97436.53
2023-04-01T10:08:53.958Z,97447.28
2023-04-01T10:14:29.451Z,97447.28
2023-04-01T10:19:54.155Z,97456.94
2023-04-01T10:25:23.999Z,97457.69
2023-04-01T10:31:17.112Z,97467.91
2023-04-01T10:36:54.668Z,97474.63
2023-04-01T10:42:47.308Z,97475.66
2023-04-01T10:48:57.094Z,97481.31
2023-04-01T10:54:19.861Z,97483.13
2023-04-01T11:00:32.516Z,97481.28
2023-04-01T11:06:39.749Z,97492.78
2023-04-01T11:12:34.068Z,97495.19
2023-04-01T11:17:55.314Z,97498.81
2023-04-01T11:23:13.781Z,97501.59
2023-04-01T11:28:36.131Z,97499.53
2023-04-01T11:33:45.284Z,97503.09
2023-04-01T11:38:59.713Z,97499.41
2023-04-01T11:44:23.772Z,97522.28
2023-04-01T11:49:52.233Z,97518.25
2023-04-01T11:55:30.876Z,97540.56
2023-04-01T12:00:52.726Z,97535.16
2023-04-01T12:05:57.229Z,97540.78
2023-04-01T12:11:03.393Z,97547.47
2023-04-01T12:16:18.789Z,97559.84
2023-04-01T12:21:28.078Z,97565.94
2023-04-01T12:26:43.751Z,97570.19
2023-04-01T12:31:55.005Z,97573.16
2023-04-01T12:37:04.917Z,97581.41
2023-04-01T12:42:16.774Z,97590.28
2023-04-01T12:47:41.526Z,97593.50
2023-04-01T12:52:57.305Z,97608.75
2023-04-01T12:58:13.079Z,97603.63
2023-04-01T13:03:30.057Z,97605.78
2023-04-01T13:08:41.453Z,97615.16
2023-04-01T13:14:11.877Z,97619.41
2023-04-01T13:19:23.893Z,97620.16
2023-04-01T13:24:33.590Z,97630.94
2023-04-01T13:29:38.701Z,97639.91
2023-04-01T13:34:53.609Z,97639.78
2023-04-01T13:40:07.133Z,97640.41
2023-04-01T13:45:16.384Z,97651.25
2023-04-01T13:50:38.064Z,97659.41
2023-04-01T13:55:56.855Z,97651.34
2023-04-01T14:01:07.712Z,97647.63
2023-04-01T14:06:20.737Z,97668.56
2023-04-01T14:11:28.408Z,97669.13
2023-04-01T14:16:59.254Z,97678.22
2023-04-01T14:33:27.786Z,97693.19
2023-04-01T14:38:36.246Z,97693.66
2023-04-01T14:44:03.595Z,97701.44
2023-04-01T14:49:17.659Z,97701.06
2023-04-01T14:54:23.846Z,97706.13
2023-04-01T14:59:30.521Z,97718.44
2023-04-01T15:04:49.390Z,97721.88
2023-04-01T15:09:57.351Z,97721.34
2023-04-01T15:15:19.002Z,97725.34
2023-04-01T15:20:36.028Z,97734.69
2023-04-01T15:25:49.236Z,97738.38
2023-04-01T15:30:56.694Z,97740.69
2023-04-01T15:36:06.518Z,97748.88
2023-04-01T15:41:14.960Z,97752.50
2023-04-01T15:46:44.311Z,97759.38
2023-04-01T15:51:57.750Z,97773.16
2023-04-01T15:57:12.431Z,97775.09
2023-04-01T16:02:21.446Z,97776.72
2023-04-01T16:07:59.321Z,97789.06
2023-04-01T16:13:13.112Z,97790.72
2023-04-01T16:18:27.601Z,97791.22
2023-04-01T16:23:38.595Z,97802.78
2023-04-01T16:28:47.223Z,97807.84
2023-04-01T16:33:53.188Z,97809.66
2023-04-01T16:39:10.927Z,97814.19
2023-04-01T16:44:20.349Z,97813.28
2023-04-01T16:49:41.960Z,97828.25
2023-04-01T16:54:50.602Z,97837.56
2023-04-01T16:59:59.678Z,97840.19
2023-04-01T17:05:05.374Z,97850.41
2023-04-01T17:10:28.788Z,97855.94
2023-04-01T17:15:37.178Z,97866.63
2023-04-01T17:20:44.510Z,97877.28
2023-04-01T17:25:55.570Z,97878.84
2023-04-01T17:31:05.028Z,97878.50
2023-04-01T17:36:13.986Z,97886.50
2023-04-01T17:41:28.183Z,97891.88
2023-04-01T17:46:52.759Z,97904.56
2023-04-01T18:30:34.934Z,97965.06
2023-04-01T18:35:49.959Z,97976.03
2023-04-01T18:40:56.556Z,97981.09
2023-04-01T18:46:02.917Z,97990.44
2023-04-01T18:51:13.462Z,97994.94
2023-04-01T18:56:17.955Z,98003.47
2023-04-01T19:01:26.576Z,98018.44
2023-04-01T19:06:33.173Z,98014.13
2023-04-01T19:55:58.211Z,98067.47
2023-04-01T20:40:37.058Z,98136.28
2023-04-01T20:45:45.721Z,98142.47
2023-04-01T20:50:52.043Z,98140.59
2023-04-01T21:34:44.446Z,98177.66
2023-04-01T21:40:45.013Z,98194.72
2023-04-01T21:46:06.813Z,98196.22
2023-04-01T21:51:27.500Z,98205.19
2023-04-01T21:56:54.014Z,98223.88
2023-04-01T22:02:32.823Z,98223.16
2023-04-01T22:07:41.166Z,98230.25
2023-04-01T22:12:48.005Z,98226.66
2023-04-01T22:17:55.949Z,98235.84
2023-04-01T22:23:14.692Z,98248.97
2023-04-01T22:28:21.838Z,98257.25
2023-04-01T22:33:32.094Z,98265.31
2023-04-01T22:38:48.333Z,98262.88
2023-04-01T22:43:58.070Z,98262.06
2023-04-01T22:49:04.719Z,98280.50
2023-04-01T22:54:17.026Z,98291.94
2023-04-01T22:59:23.280Z,98299.66
2023-04-01T23:04:29.019Z,98307.59
2023-04-01T23:09:33.844Z,98323.81
2023-04-01T23:14:47.508Z,98329.44
2023-04-01T23:19:54.879Z,98339.25
2023-04-01T23:25:14.434Z,98352.53
2023-04-01T23:30:48.902Z,98367.91
2023-04-01T23:35:52.095Z,98370.47
2023-04-01T23:40:57.068Z,98381.88
2023-04-01T23:46:01.449Z,98405.09
2023-04-01T23:51:05.302Z,98415.25
2023-04-01T23:56:09.398Z,98421.53
